createdAt,value
2018-03-11T00:00:48.493Z,4.4
2018-03-11T00:02:10.822Z,4.3
2018-03-11T00:03:30.660Z,5.2
2018-03-11T00:04:55.576Z,4.4
2018-03-11T00:06:15.379Z,4.3
2018-03-11T00:07:35.174Z,4.4
2018-03-11T00:09:00.036Z,4.3
2018-03-11T00:10:32.500Z,4.4
2018-03-11T00:11:52.336Z,4.4
2018-03-11T00:13:14.695Z,5.6
2018-03-11T00:14:34.525Z,5.3
2018-03-11T00:15:54.354Z,4.4
2018-03-11T00:17:19.244Z,4.4
2018-03-11T00:18:39.078Z,5.3
2018-03-11T00:20:01.402Z,5.3
2018-03-11T00:21:23.738Z,4.6
2018-03-11T00:22:43.590Z,4.6
2018-03-11T00:24:13.517Z,4.6
2018-03-11T00:25:33.370Z,4.9
2018-03-11T00:26:53.165Z,4.9
2018-03-11T00:28:20.599Z,4.9
2018-03-11T00:29:40.442Z,4.9
2018-03-11T00:31:05.312Z,5.5
2018-03-11T00:32:25.158Z,4.9
2018-03-11T00:33:47.483Z,4.9
2018-03-11T00:35:07.297Z,4.9
2018-03-11T00:36:27.142Z,4.9
2018-03-11T00:37:46.953Z,4.9
2018-03-11T00:39:06.752Z,5
2018-03-11T00:40:29.128Z,4.9
2018-03-11T00:41:48.960Z,5.4
2018-03-11T00:43:11.315Z,4.9
2018-03-11T00:44:41.288Z,4.9
2018-03-11T00:46:01.085Z,4.9
2018-03-11T00:47:23.416Z,4.9
2018-03-11T00:48:43.222Z,5.4
2018-03-11T00:50:18.243Z,4.9
2018-03-11T00:51:38.049Z,5.4
2018-03-11T00:52:57.863Z,5.4
2018-03-11T00:54:22.791Z,5.3
2018-03-11T00:55:42.607Z,5.4
2018-03-11T00:57:07.485Z,4.8
2018-03-11T00:58:27.320Z,4.8
2018-03-11T00:59:49.673Z,4.8
2018-03-11T01:01:09.498Z,5.3
2018-03-11T01:02:34.408Z,5.3
2018-03-11T01:03:54.245Z,5.3
2018-03-11T01:05:19.169Z,5.2
2018-03-11T01:06:39.036Z,5.3
2018-03-11T01:08:03.922Z,5.2
2018-03-11T01:09:23.740Z,5.3
2018-03-11T01:10:51.135Z,5.2
2018-03-11T01:12:10.938Z,5.2
2018-03-11T01:13:38.343Z,5.2
2018-03-11T01:15:00.687Z,5.2
2018-03-11T01:16:28.099Z,5.2
2018-03-11T01:17:50.436Z,5.2
2018-03-11T01:19:10.303Z,5.2
2018-03-11T01:20:30.138Z,5.2
2018-03-11T01:21:49.943Z,5.2
2018-03-11T01:23:14.794Z,5.2
2018-03-11T01:24:37.186Z,5.1
2018-03-11T01:25:59.581Z,5.4
2018-03-11T01:27:19.403Z,5.4
2018-03-11T01:28:39.232Z,5.2
2018-03-11T01:29:59.066Z,5.4
2018-03-11T01:31:18.935Z,5.2
2018-03-11T01:32:43.823Z,5.3
2018-03-11T01:34:03.630Z,5.4
2018-03-11T01:35:23.485Z,5.1
2018-03-11T01:36:43.368Z,5.1
2018-03-11T01:38:08.225Z,5
2018-03-11T01:39:30.551Z,5.2
2018-03-11T01:40:50.384Z,5.1
2018-03-11T01:42:10.181Z,5
2018-03-11T01:43:29.983Z,4.8
2018-03-11T01:44:59.953Z,4.7
2018-03-11T01:46:19.806Z,4.7
2018-03-11T01:47:44.719Z,4.7
2018-03-11T01:49:04.549Z,4.6
2018-03-11T01:50:24.377Z,4.6
2018-03-11T01:51:46.723Z,5.3
2018-03-11T01:53:06.522Z,5
2018-03-11T01:54:36.502Z,4.7
2018-03-11T01:56:03.926Z,4.8
2018-03-11T01:57:28.819Z,4.8
2018-03-11T01:58:48.647Z,4.8
2018-03-11T02:00:08.500Z,5.1
2018-03-11T02:01:28.341Z,5.3
2018-03-11T02:02:50.722Z,5.2
2018-03-11T02:04:13.096Z,4.7
2018-03-11T02:05:50.595Z,4.7
2018-03-11T02:07:15.447Z,4.7
2018-03-11T02:08:42.866Z,5.3
2018-03-11T02:10:02.675Z,4.8
2018-03-11T02:11:22.524Z,4.8
2018-03-11T02:12:42.324Z,5.3
2018-03-11T02:14:04.652Z,5
2018-03-11T02:15:37.162Z,4.7
2018-03-11T02:16:56.987Z,5.2
2018-03-11T02:18:19.342Z,4.9
2018-03-11T02:19:41.676Z,4.8
2018-03-11T02:21:04.055Z,4.7
2018-03-11T02:22:26.408Z,4.8
2018-03-11T02:23:46.209Z,4.8
2018-03-11T02:25:06.003Z,4.8
2018-03-11T02:26:25.839Z,4.8
2018-03-11T02:27:48.190Z,4.8
2018-03-11T02:29:08.041Z,5.1
2018-03-11T02:30:27.842Z,4.8
2018-03-11T02:31:52.704Z,5.3
2018-03-11T02:33:12.553Z,4.8
2018-03-11T02:34:34.899Z,4.7
2018-03-11T02:35:54.706Z,4.7
2018-03-11T02:37:17.064Z,4.7
2018-03-11T02:38:36.905Z,4.7
2018-03-11T02:39:56.701Z,4.7
2018-03-11T02:41:19.099Z,4.7
2018-03-11T02:42:43.993Z,5
2018-03-11T02:44:11.383Z,4.8
2018-03-11T02:45:31.223Z,4.5
2018-03-11T02:46:51.042Z,4.5
2018-03-11T02:48:13.471Z,4.5
2018-03-11T02:49:48.489Z,4.4
2018-03-11T02:51:08.310Z,4.4
2018-03-11T02:52:40.758Z,4.9
2018-03-11T02:54:08.202Z,4.4
2018-03-11T02:55:28.025Z,4.8
2018-03-11T02:56:55.425Z,4.4
2018-03-11T02:58:17.747Z,4.4
2018-03-11T02:59:40.088Z,4.8
2018-03-11T03:01:02.466Z,4.4
2018-03-11T03:02:24.807Z,4.4
2018-03-11T03:03:47.143Z,4.4
2018-03-11T03:05:09.480Z,4.3
2018-03-11T03:06:29.310Z,4.9
2018-03-11T03:07:56.696Z,4.8
2018-03-11T03:09:19.053Z,4.7
2018-03-11T03:10:38.923Z,4.3
2018-03-11T03:11:58.758Z,4.9
2018-03-11T03:13:26.145Z,4.8
2018-03-11T03:14:45.950Z,4.6
2018-03-11T03:16:10.813Z,4.4
2018-03-11T03:17:33.202Z,4.3
2018-03-11T03:18:53.019Z,4.1
2018-03-11T03:20:15.412Z,4.1
2018-03-11T03:21:35.249Z,4
2018-03-11T03:22:55.046Z,3.9
2018-03-11T03:24:14.845Z,3.8
2018-03-11T03:25:34.671Z,3.7
2018-03-11T03:26:54.489Z,3.6
2018-03-11T03:28:14.294Z,2.7
2018-03-11T03:29:34.104Z,2.6
2018-03-11T03:30:56.510Z,2.6
2018-03-11T03:32:18.864Z,3.4
2018-03-11T03:33:38.729Z,3.3
2018-03-11T03:35:03.622Z,3.2
2018-03-11T03:36:26.004Z,2.4
2018-03-11T03:37:50.870Z,2.6
2018-03-11T03:39:15.728Z,2.8
2018-03-11T03:40:35.552Z,2.8
2018-03-11T03:42:05.514Z,2
2018-03-11T03:43:35.442Z,2.5
2018-03-11T03:44:55.290Z,2.8
2018-03-11T03:46:15.103Z,2.7
2018-03-11T03:47:37.441Z,2.9
2018-03-11T03:49:02.313Z,2
2018-03-11T03:50:22.147Z,2.3
2018-03-11T03:51:42.010Z,2.9
2018-03-11T03:53:01.819Z,2.1
2018-03-11T03:54:21.617Z,2.4
2018-03-11T03:55:41.437Z,2.3
2018-03-11T03:57:06.340Z,1.9
2018-03-11T03:58:31.201Z,2.3
2018-03-11T03:59:53.570Z,2.4
2018-03-11T04:01:23.516Z,2.4
2018-03-11T04:02:48.408Z,2.2
2018-03-11T04:04:08.247Z,1.9
2018-03-11T04:05:38.261Z,2
2018-03-11T04:06:58.094Z,1.7
2018-03-11T04:08:25.523Z,2.1
2018-03-11T04:09:47.858Z,2.2
2018-03-11T04:11:07.715Z,2.2
2018-03-11T04:12:32.607Z,2.2
2018-03-11T04:13:52.431Z,1.9
2018-03-11T04:15:14.790Z,2.1
2018-03-11T04:16:42.205Z,2.2
2018-03-11T04:18:04.553Z,2
2018-03-11T04:19:29.411Z,2.2
2018-03-11T04:20:59.363Z,2.1
2018-03-11T04:22:21.684Z,2
2018-03-11T04:23:46.532Z,1.8
2018-03-11T04:25:21.507Z,1.9
2018-03-11T04:26:43.856Z,1.8
2018-03-11T04:28:03.683Z,1.7
2018-03-11T04:29:23.558Z,1.7
2018-03-11T04:30:43.399Z,1.7
2018-03-11T04:32:03.228Z,1.5
2018-03-11T04:33:25.556Z,1.7
2018-03-11T04:34:55.489Z,1.7
2018-03-11T04:36:17.840Z,0.9
2018-03-11T04:37:40.177Z,1.7
2018-03-11T04:38:59.974Z,1.8
2018-03-11T04:40:19.793Z,1.8
2018-03-11T04:41:44.652Z,1.7
2018-03-11T04:43:04.490Z,2
2018-03-11T04:44:26.862Z,1.9
2018-03-11T04:45:59.307Z,2.3
2018-03-11T04:47:19.104Z,1.7
2018-03-11T04:48:38.955Z,2
2018-03-11T04:49:58.774Z,2.2
2018-03-11T04:51:26.168Z,2.3
2018-03-11T04:52:48.523Z,2.7
2018-03-11T04:54:08.352Z,2.2
2018-03-11T04:55:28.230Z,2.5
2018-03-11T04:56:48.107Z,2.1
2018-03-11T04:58:07.970Z,2.1
2018-03-11T04:59:30.307Z,2.1
2018-03-11T05:00:57.712Z,2.1
2018-03-11T05:02:22.581Z,2
2018-03-11T05:03:44.968Z,2.3
2018-03-11T05:05:09.839Z,2.2
2018-03-11T05:06:37.253Z,1.9
2018-03-11T05:08:02.129Z,2
2018-03-11T05:09:21.967Z,1.9
2018-03-11T05:10:41.867Z,1.9
2018-03-11T05:12:01.669Z,2.4
2018-03-11T05:13:29.056Z,2
2018-03-11T05:14:51.432Z,2.5
2018-03-11T05:16:11.337Z,2.5
2018-03-11T05:17:36.246Z,2.7
2018-03-11T05:18:56.041Z,3.1
2018-03-11T05:20:18.407Z,3.1
2018-03-11T05:21:38.277Z,3.1
2018-03-11T05:23:00.617Z,3.1
2018-03-11T05:24:22.968Z,3.2
2018-03-11T05:25:50.359Z,3.2
2018-03-11T05:27:10.188Z,3.3
2018-03-11T05:28:29.983Z,3.2
2018-03-11T05:29:52.319Z,2.8
2018-03-11T05:31:12.122Z,2.7
2018-03-11T05:32:34.505Z,2.9
2018-03-11T05:33:54.340Z,2.9
2018-03-11T05:35:29.332Z,2.8
2018-03-11T05:36:59.269Z,2.5
2018-03-11T05:38:21.624Z,2.9
2018-03-11T05:39:51.551Z,2.9
2018-03-11T05:41:13.883Z,2.9
2018-03-11T05:42:38.749Z,3.3
2018-03-11T05:44:03.600Z,3.6
2018-03-11T05:45:23.430Z,3.4
2018-03-11T05:46:45.629Z,3.5
2018-03-11T05:48:10.482Z,3.5
2018-03-11T05:49:30.283Z,3.6
2018-03-11T05:50:50.122Z,3.9
2018-03-11T05:52:14.970Z,4
2018-03-11T05:53:34.780Z,4
2018-03-11T05:54:59.645Z,4.1
2018-03-11T05:56:19.479Z,4.1
2018-03-11T05:57:41.811Z,4.1
2018-03-11T05:59:01.674Z,4.1
2018-03-11T06:00:26.559Z,4.2
2018-03-11T06:01:48.919Z,4.2
2018-03-11T06:03:13.785Z,4.1
2018-03-11T06:04:33.576Z,4.3
2018-03-11T06:05:53.401Z,4.3
2018-03-11T06:07:15.744Z,4.3
2018-03-11T06:08:35.551Z,4.3
2018-03-11T06:09:55.368Z,4
2018-03-11T06:11:15.170Z,4.3
2018-03-11T06:12:37.523Z,4.3
2018-03-11T06:13:57.320Z,4.3
2018-03-11T06:15:24.792Z,3.5
2018-03-11T06:16:47.128Z,4.2
2018-03-11T06:18:06.924Z,4.2
2018-03-11T06:19:26.774Z,4.3
2018-03-11T06:20:46.597Z,4.4
2018-03-11T06:22:06.408Z,4.4
2018-03-11T06:23:26.255Z,4.5
2018-03-11T06:24:53.685Z,4.6
2018-03-11T06:26:16.022Z,4.6
2018-03-11T06:27:38.393Z,4.6
2018-03-11T06:29:00.768Z,4.6
2018-03-11T06:30:20.564Z,4.5
2018-03-11T06:31:47.984Z,4.2
2018-03-11T06:33:10.316Z,4
2018-03-11T06:34:32.670Z,4.2
2018-03-11T06:35:55.031Z,4.4
2018-03-11T06:37:19.926Z,4
2018-03-11T06:38:39.736Z,4
2018-03-11T06:40:02.120Z,4.1
2018-03-11T06:41:26.991Z,4.5
2018-03-11T06:42:46.844Z,4.3
2018-03-11T06:44:06.660Z,3.8
2018-03-11T06:45:29.009Z,4.1
2018-03-11T06:46:53.867Z,4.1
2018-03-11T06:48:16.209Z,4.2
2018-03-11T06:49:38.534Z,4.2
2018-03-11T06:50:58.335Z,4.3
2018-03-11T06:52:18.173Z,4.3
2018-03-11T06:53:38.008Z,4.3
2018-03-11T06:55:00.347Z,4.3
2018-03-11T06:56:22.698Z,4.3
2018-03-11T06:57:42.580Z,4.3
2018-03-11T06:59:02.412Z,4.2
2018-03-11T07:00:22.215Z,4.9
2018-03-11T07:01:42.059Z,4.9
2018-03-11T07:03:01.920Z,4.9
2018-03-11T07:04:24.277Z,5
2018-03-11T07:05:44.082Z,5
2018-03-11T07:07:08.997Z,5
2018-03-11T07:08:28.814Z,5.1
2018-03-11T07:09:48.614Z,5.1
2018-03-11T07:11:08.411Z,5.2
2018-03-11T07:12:33.270Z,5.2
2018-03-11T07:13:53.098Z,4.9
2018-03-11T07:15:15.477Z,5.4
2018-03-11T07:16:37.865Z,5.4
2018-03-11T07:18:00.211Z,5.5
2018-03-11T07:19:20.014Z,5.4
2018-03-11T07:20:44.915Z,5.5
2018-03-11T07:22:07.285Z,5.5
2018-03-11T07:23:27.112Z,5.6
2018-03-11T07:24:49.481Z,5.7
2018-03-11T07:26:09.310Z,5.8
2018-03-11T07:27:34.206Z,5.7
2018-03-11T07:28:56.544Z,5.5
2018-03-11T07:30:16.364Z,5.1
2018-03-11T07:31:46.342Z,5.6
2018-03-11T07:33:08.672Z,4.8
2018-03-11T07:34:28.518Z,5.2
2018-03-11T07:35:58.498Z,4.8
2018-03-11T07:37:18.305Z,5.3
2018-03-11T07:38:40.633Z,4.7
2018-03-11T07:40:00.497Z,5.1
2018-03-11T07:41:27.968Z,5.7
2018-03-11T07:42:47.808Z,4.9
2018-03-11T07:44:07.636Z,4.8
2018-03-11T07:45:30.033Z,4.3
2018-03-11T07:46:49.884Z,5.9
2018-03-11T07:48:09.741Z,4.7
2018-03-11T07:49:29.546Z,4.5
2018-03-11T07:50:54.405Z,3.8
2018-03-11T07:52:14.218Z,4.2
2018-03-11T07:53:34.016Z,5.3
2018-03-11T07:54:53.823Z,5.3
2018-03-11T07:56:13.652Z,5.5
2018-03-11T07:57:33.487Z,5.1
2018-03-11T07:58:55.833Z,6.1
2018-03-11T08:00:15.633Z,6.2
2018-03-11T08:01:35.429Z,6.2
2018-03-11T08:02:55.290Z,6.1
2018-03-11T08:04:15.097Z,6.2
2018-03-11T08:05:34.950Z,6.5
2018-03-11T08:07:02.372Z,6.7
2018-03-11T08:08:24.758Z,6.7
2018-03-11T08:09:44.570Z,6.5
2018-03-11T08:11:04.430Z,6.8
2018-03-11T08:12:31.822Z,6.8
2018-03-11T08:13:56.767Z,7
2018-03-11T08:15:16.618Z,7
2018-03-11T08:16:36.417Z,7.1
2018-03-11T08:17:56.270Z,6.8
2018-03-11T08:19:18.657Z,6.3
2018-03-11T08:20:43.520Z,6.4
2018-03-11T08:22:03.362Z,6.4
2018-03-11T08:23:23.206Z,6.5
2018-03-11T08:24:48.100Z,6.5
2018-03-11T08:26:15.484Z,6.4
2018-03-11T08:27:35.299Z,6.1
2018-03-11T08:28:55.098Z,6
2018-03-11T08:30:14.903Z,5.8
2018-03-11T08:31:34.708Z,6.4
2018-03-11T08:32:54.548Z,5.9
2018-03-11T08:34:14.358Z,5.8
2018-03-11T08:35:51.954Z,6.1
2018-03-11T08:37:14.347Z,6.7
2018-03-11T08:38:44.288Z,6.8
2018-03-11T08:40:19.315Z,6.7
2018-03-11T08:41:49.235Z,7.3
2018-03-11T08:43:11.586Z,8.2
2018-03-11T08:44:31.390Z,8.3
2018-03-11T08:45:53.730Z,8.3
2018-03-11T08:47:16.068Z,8.4
2018-03-11T08:48:35.870Z,8.5
2018-03-11T08:50:03.272Z,8.6
2018-03-11T08:51:23.071Z,8.6
2018-03-11T08:52:47.939Z,8.5
2018-03-11T08:54:07.754Z,8.7
2018-03-11T08:55:27.640Z,9.1
2018-03-11T08:56:52.536Z,9.2
2018-03-11T08:58:12.364Z,9.4
2018-03-11T08:59:37.296Z,9.7
2018-03-11T09:00:59.640Z,9.7
2018-03-11T09:02:32.124Z,9.7
2018-03-11T09:03:57.064Z,9.9
2018-03-11T09:05:19.426Z,10
2018-03-11T09:06:41.826Z,10.1
2018-03-11T09:08:01.684Z,10.1
2018-03-11T09:09:34.188Z,10.1
2018-03-11T09:10:54.004Z,10.2
2018-03-11T09:12:13.824Z,10.2
2018-03-11T09:13:33.650Z,10.2
2018-03-11T09:14:55.993Z,10.3
2018-03-11T09:16:23.396Z,10.4
2018-03-11T09:17:43.207Z,10.7
2018-03-11T09:19:03.103Z,10.8
2018-03-11T09:20:28.010Z,11.1
2018-03-11T09:21:50.415Z,11.3
2018-03-11T09:23:12.792Z,11
2018-03-11T09:24:35.168Z,11
2018-03-11T09:25:57.624Z,11.1
2018-03-11T09:27:17.500Z,11.1
2018-03-11T09:28:39.913Z,11.1
2018-03-11T09:29:59.758Z,11
2018-03-11T09:31:19.615Z,11.2
2018-03-11T09:32:42.032Z,11
2018-03-11T09:34:07.013Z,11.2
2018-03-11T09:35:26.885Z,11.3
2018-03-11T09:36:46.757Z,11.3
2018-03-11T09:38:09.154Z,11.1
2018-03-11T09:39:28.994Z,11.1
2018-03-11T09:40:53.949Z,11
2018-03-11T09:42:16.319Z,10.7
2018-03-11T09:43:36.170Z,10.5
2018-03-11T09:44:58.578Z,10.5
2018-03-11T09:46:18.424Z,10.3
2018-03-11T09:47:38.318Z,10.3
2018-03-11T09:49:03.236Z,10.3
2018-03-11T09:50:23.081Z,10.3
2018-03-11T09:51:47.988Z,10.4
2018-03-11T09:53:15.468Z,10.5
2018-03-11T09:54:37.846Z,10.6
2018-03-11T09:56:00.224Z,10.7
2018-03-11T09:57:20.080Z,10.7
2018-03-11T09:58:39.954Z,10.8
2018-03-11T09:59:59.863Z,10.9
2018-03-11T10:01:19.763Z,11
2018-03-11T10:02:47.279Z,11.1
2018-03-11T10:04:07.298Z,11.2
2018-03-11T10:05:29.651Z,11.2
2018-03-11T10:06:49.478Z,11.2
2018-03-11T10:08:09.323Z,11.1
2018-03-11T10:09:31.750Z,10.8
2018-03-11T10:10:54.119Z,10.8
2018-03-11T10:12:14.004Z,10.8
2018-03-11T10:13:33.865Z,10.7
2018-03-11T10:14:56.095Z,10.6
2018-03-11T10:16:20.993Z,10.7
2018-03-11T10:17:40.840Z,11.2
2018-03-11T10:19:00.690Z,11.2
2018-03-11T10:20:23.076Z,11.1
2018-03-11T10:21:42.948Z,11.2
2018-03-11T10:23:02.800Z,11.3
2018-03-11T10:24:25.208Z,11.3
2018-03-11T10:25:47.613Z,11.3
2018-03-11T10:27:07.475Z,11
2018-03-11T10:28:32.438Z,10.7
2018-03-11T10:29:54.836Z,10.8
2018-03-11T10:31:14.671Z,10.9
2018-03-11T10:32:34.510Z,11.1
2018-03-11T10:33:54.353Z,11
2018-03-11T10:35:14.214Z,11
2018-03-11T10:36:34.057Z,11.1
2018-03-11T10:37:53.945Z,11.2
2018-03-11T10:39:13.797Z,11.2
2018-03-11T10:40:33.686Z,11.4
2018-03-11T10:41:53.532Z,11.3
2018-03-11T10:43:15.893Z,11.2
2018-03-11T10:44:38.304Z,11.2
2018-03-11T10:45:58.147Z,11.3
2018-03-11T10:47:23.133Z,11.4
2018-03-11T10:48:48.081Z,11.4
2018-03-11T10:50:07.965Z,11.6
2018-03-11T10:51:30.320Z,11.6
2018-03-11T10:52:50.157Z,11.6
2018-03-11T10:54:12.533Z,11.7
2018-03-11T10:55:34.932Z,11.7
2018-03-11T10:56:57.328Z,11.8
2018-03-11T10:58:17.253Z,11.8
2018-03-11T10:59:37.156Z,12.1
2018-03-11T11:00:59.588Z,11.9
2018-03-11T11:02:19.427Z,12.1
2018-03-11T11:03:41.887Z,12.2
2018-03-11T11:05:01.807Z,12.2
2018-03-11T11:06:21.704Z,12.3
2018-03-11T11:07:44.064Z,12.6
2018-03-11T11:09:06.451Z,12.9
2018-03-11T11:10:28.863Z,13.4
2018-03-11T11:11:48.743Z,14.2
2018-03-11T11:13:08.637Z,13.9
2018-03-11T11:14:28.521Z,13.9
2018-03-11T11:15:50.957Z,14
2018-03-11T11:17:10.805Z,14
2018-03-11T11:18:30.636Z,14.1
2018-03-11T11:19:50.484Z,14.2
2018-03-11T11:21:10.346Z,14.2
2018-03-11T11:22:32.715Z,13.8
2018-03-11T11:23:52.560Z,13.8
2018-03-11T11:25:12.395Z,13.7
2018-03-11T11:26:39.818Z,14.2
2018-03-11T11:28:02.207Z,13.6
2018-03-11T11:29:22.140Z,13.6
2018-03-11T11:30:42.016Z,13.6
2018-03-11T11:32:04.438Z,13.7
2018-03-11T11:33:24.266Z,13.6
2018-03-11T11:34:44.114Z,13.8
2018-03-11T11:36:04.193Z,14.1
2018-03-11T11:37:24.000Z,14
2018-03-11T11:38:43.895Z,13.6
2018-03-11T11:40:06.300Z,13.6
2018-03-11T11:41:28.667Z,13.6
2018-03-11T11:42:53.595Z,13.4
2018-03-11T11:44:13.442Z,13.4
2018-03-11T11:45:33.277Z,13.3
2018-03-11T11:46:53.152Z,13.4
2018-03-11T11:48:12.973Z,13.8
2018-03-11T11:49:35.401Z,14
2018-03-11T11:51:05.406Z,14
2018-03-11T11:52:30.336Z,14.9
2018-03-11T11:54:00.308Z,13.8
2018-03-11T11:55:22.740Z,13.5
2018-03-11T11:56:50.205Z,13.5
2018-03-11T11:58:17.685Z,13.2
2018-03-11T11:59:37.534Z,13
2018-03-11T12:00:59.973Z,13.1
2018-03-11T12:02:22.411Z,13.1
2018-03-11T12:03:44.841Z,13.2
2018-03-11T12:05:07.251Z,13.4
2018-03-11T12:06:42.274Z,13.6
2018-03-11T12:08:02.169Z,13.6
2018-03-11T12:09:24.548Z,13.5
2018-03-11T12:10:44.423Z,13.7
2018-03-11T12:12:04.428Z,14.4
2018-03-11T12:13:24.260Z,14
2018-03-11T12:14:46.676Z,13.7
2018-03-11T12:16:09.052Z,14.2
2018-03-11T12:17:28.907Z,14.3
2018-03-11T12:18:48.774Z,14
2018-03-11T12:20:13.730Z,14.2
2018-03-11T12:21:33.606Z,14
2018-03-11T12:22:55.990Z,13.8
2018-03-11T12:24:15.853Z,13.7
2018-03-11T12:25:35.733Z,13.8
2018-03-11T12:26:58.152Z,14
2018-03-11T12:28:17.985Z,14
2018-03-11T12:29:37.860Z,13.9
2018-03-11T12:31:02.765Z,13.9
2018-03-11T12:32:25.194Z,14
2018-03-11T12:33:45.067Z,13.9
2018-03-11T12:35:04.920Z,13.8
2018-03-11T12:36:24.831Z,14.9
2018-03-11T12:37:47.237Z,14.8
2018-03-11T12:39:07.074Z,14.8
2018-03-11T12:40:39.629Z,15.5
2018-03-11T12:42:19.763Z,15.5
2018-03-11T12:43:39.616Z,15.1
2018-03-11T12:44:59.447Z,15.2
2018-03-11T12:46:24.375Z,15.2
2018-03-11T12:47:49.269Z,15.5
2018-03-11T12:49:09.121Z,14.3
2018-03-11T12:50:28.979Z,15.9
2018-03-11T12:51:48.835Z,15.9
2018-03-11T12:53:08.675Z,15.6
2018-03-11T12:54:28.547Z,15.6
2018-03-11T12:55:50.961Z,15.6
2018-03-11T12:57:10.881Z,15.5
2018-03-11T12:58:30.740Z,16.1
2018-03-11T12:59:50.656Z,16
2018-03-11T13:01:10.547Z,15.9
2018-03-11T13:02:30.454Z,17.5
2018-03-11T13:03:58.001Z,17.5
2018-03-11T13:05:20.397Z,18.8
2018-03-11T13:06:57.941Z,19.5
2018-03-11T13:08:17.785Z,19.3
2018-03-11T13:09:37.675Z,19.1
2018-03-11T13:11:10.170Z,18.7
2018-03-11T13:12:30.021Z,18.3
2018-03-11T13:13:52.406Z,18.1
2018-03-11T13:15:12.298Z,17.5
2018-03-11T13:16:32.175Z,17.3
2018-03-11T13:18:02.176Z,17.3
2018-03-11T13:19:22.073Z,16.3
2018-03-11T13:20:41.913Z,16
2018-03-11T13:22:01.805Z,14.8
2018-03-11T13:23:31.808Z,14.8
2018-03-11T13:24:51.721Z,15.2
2018-03-11T13:26:14.126Z,15.2
2018-03-11T13:27:34.036Z,15.2
2018-03-11T13:28:53.878Z,15.3
2018-03-11T13:30:16.323Z,15.3
2018-03-11T13:31:38.691Z,16
2018-03-11T13:33:01.124Z,16.1
2018-03-11T13:34:21.044Z,15
2018-03-11T13:35:45.969Z,15.1
2018-03-11T13:37:05.842Z,16.8
2018-03-11T13:38:25.757Z,18.4
2018-03-11T13:39:45.658Z,18.8
2018-03-11T13:41:13.094Z,19.4
2018-03-11T13:42:37.991Z,18.8
2018-03-11T13:44:08.010Z,18.8
2018-03-11T13:45:32.919Z,18.2
2018-03-11T13:46:52.758Z,20.8
2018-03-11T13:48:20.188Z,22
2018-03-11T13:49:40.029Z,22.6
2018-03-11T13:50:59.917Z,20.1
2018-03-11T13:52:19.732Z,19.6
2018-03-11T13:53:47.168Z,19.4
2018-03-11T13:55:07.115Z,19.3
2018-03-11T13:56:29.525Z,19.3
2018-03-11T13:57:49.397Z,19.8
2018-03-11T13:59:11.758Z,20.4
2018-03-11T14:00:36.726Z,21.4
2018-03-11T14:01:59.137Z,21.7
2018-03-11T14:03:19.035Z,21.3
2018-03-11T14:04:46.533Z,21
2018-03-11T14:06:06.424Z,21
2018-03-11T14:07:26.346Z,20.3
2018-03-11T14:08:51.287Z,18.6
2018-03-11T14:10:11.223Z,17.9
2018-03-11T14:11:46.352Z,17
2018-03-11T14:13:16.347Z,15.3
2018-03-11T14:14:36.230Z,14.8
2018-03-11T14:16:01.157Z,15.3
2018-03-11T14:17:23.433Z,15.1
2018-03-11T14:18:43.276Z,14.4
2018-03-11T14:20:03.124Z,14.2
2018-03-11T14:21:23.025Z,13.1
2018-03-11T14:22:50.477Z,13.3
2018-03-11T14:24:12.866Z,12.5
2018-03-11T14:25:37.787Z,12.4
2018-03-11T14:26:57.694Z,12.6
2018-03-11T14:28:17.537Z,12.6
2018-03-11T14:29:42.497Z,12.6
2018-03-11T14:31:02.350Z,12.6
2018-03-11T14:32:22.210Z,13.6
2018-03-11T14:33:42.082Z,13.3
2018-03-11T14:35:04.471Z,13.2
2018-03-11T14:36:24.368Z,13.1
2018-03-11T14:37:44.274Z,13
2018-03-11T14:39:09.230Z,12.7
2018-03-11T14:40:29.114Z,12.4
2018-03-11T14:41:49.000Z,12.4
2018-03-11T14:43:11.391Z,13.4
2018-03-11T14:44:38.821Z,12.7
2018-03-11T14:45:58.658Z,13.1
2018-03-11T14:47:18.533Z,13.3
2018-03-11T14:48:38.382Z,13.8
2018-03-11T14:50:03.284Z,13.7
2018-03-11T14:51:23.126Z,13.5
2018-03-11T14:52:42.953Z,13.5
2018-03-11T14:54:02.788Z,13.6
2018-03-11T14:55:22.626Z,14.2
2018-03-11T14:56:52.455Z,14
2018-03-11T14:58:12.274Z,14.1
2018-03-11T14:59:32.105Z,13.9
2018-03-11T15:00:54.526Z,14.1
2018-03-11T15:02:14.420Z,13.8
2018-03-11T15:03:34.247Z,13.8
2018-03-11T15:04:54.088Z,13.3
2018-03-11T15:06:13.984Z,13.2
2018-03-11T15:07:33.817Z,13.3
2018-03-11T15:09:01.282Z,13.3
2018-03-11T15:10:21.166Z,13.5
2018-03-11T15:11:41.110Z,13.4
2018-03-11T15:13:06.050Z,13.6
2018-03-11T15:14:36.039Z,13.7
2018-03-11T15:15:58.468Z,13.7
2018-03-11T15:17:18.410Z,13.7
2018-03-11T15:18:38.309Z,13.7
2018-03-11T15:19:58.146Z,13
2018-03-11T15:21:20.594Z,13.1
2018-03-11T15:22:45.612Z,12.9
2018-03-11T15:24:08.001Z,12.7
2018-03-11T15:25:27.890Z,12.4
2018-03-11T15:26:50.316Z,12.3
2018-03-11T15:28:15.251Z,12.3
2018-03-11T15:29:35.100Z,12.3
2018-03-11T15:30:57.531Z,12.4
2018-03-11T15:32:24.979Z,12.4
2018-03-11T15:33:47.367Z,12.5
2018-03-11T15:35:07.260Z,12.4
2018-03-11T15:36:27.108Z,12.2
2018-03-11T15:37:47.059Z,12
2018-03-11T15:39:14.551Z,12
2018-03-11T15:40:34.386Z,11.9
2018-03-11T15:41:56.753Z,11.9
2018-03-11T15:43:19.133Z,11.8
2018-03-11T15:44:41.504Z,11.8
2018-03-11T15:46:01.365Z,11.9
2018-03-11T15:47:21.268Z,11.7
2018-03-11T15:48:41.135Z,11.6
2018-03-11T15:50:01.092Z,11.2
2018-03-11T15:51:26.044Z,11.2
2018-03-11T15:52:45.934Z,11.1
2018-03-11T15:54:10.876Z,11.1
2018-03-11T15:55:35.818Z,11
2018-03-11T15:56:58.249Z,10.9
2018-03-11T15:58:18.137Z,10.9
2018-03-11T15:59:37.984Z,10.4
2018-03-11T16:00:57.884Z,10.6
2018-03-11T16:02:17.742Z,10.6
2018-03-11T16:03:40.159Z,10.6
2018-03-11T16:05:05.087Z,10.4
2018-03-11T16:06:24.943Z,10.4
2018-03-11T16:07:44.857Z,10.4
2018-03-11T16:09:07.305Z,10.2
2018-03-11T16:10:27.170Z,10.2
2018-03-11T16:11:49.516Z,9.2
2018-03-11T16:13:09.360Z,10.5
2018-03-11T16:14:31.719Z,10.5
2018-03-11T16:16:01.801Z,10.4
2018-03-11T16:17:26.688Z,10.3
2018-03-11T16:18:49.084Z,10.3
2018-03-11T16:20:08.995Z,10.1
2018-03-11T16:21:31.456Z,10.2
2018-03-11T16:22:53.863Z,10.1
2018-03-11T16:24:13.712Z,10
2018-03-11T16:25:38.628Z,10
2018-03-11T16:26:58.472Z,10
2018-03-11T16:28:18.355Z,9.9
2018-03-11T16:29:48.309Z,9.9
2018-03-11T16:31:08.155Z,9.8
2018-03-11T16:32:28.094Z,9.7
2018-03-11T16:33:47.900Z,9.7
2018-03-11T16:35:10.328Z,9.7
2018-03-11T16:36:30.311Z,9.7
2018-03-11T16:38:00.303Z,9.6
2018-03-11T16:39:22.675Z,9.5
2018-03-11T16:40:42.522Z,9.4
2018-03-11T16:42:02.360Z,9.5
2018-03-11T16:43:32.339Z,9.4
2018-03-11T16:44:52.206Z,9.4
2018-03-11T16:46:22.202Z,9.3
2018-03-11T16:47:44.602Z,9.4
2018-03-11T16:49:04.434Z,9.3
2018-03-11T16:50:26.793Z,9.2
2018-03-11T16:51:51.750Z,9.2
2018-03-11T16:53:11.587Z,9.1
2018-03-11T16:54:44.079Z,9.1
2018-03-11T16:56:03.901Z,9
2018-03-11T16:57:23.654Z,9
2018-03-11T16:58:51.080Z,8.8
2018-03-11T17:00:18.553Z,8.7
2018-03-11T17:01:38.388Z,8.7
2018-03-11T17:03:00.809Z,8.6
2018-03-11T17:04:23.226Z,8.4
2018-03-11T17:06:05.862Z,8.5
2018-03-11T17:07:25.767Z,8.4
2018-03-11T17:08:48.140Z,8.4
2018-03-11T17:10:07.975Z,8.3
2018-03-11T17:11:35.456Z,8
2018-03-11T17:12:55.350Z,7.6
2018-03-11T17:14:20.294Z,7.6
2018-03-11T17:16:00.398Z,7.6
2018-03-11T17:17:22.813Z,7.6
2018-03-11T17:18:42.662Z,6.9
2018-03-11T17:20:02.494Z,7.3
2018-03-11T17:21:29.983Z,8.1
2018-03-11T17:23:02.480Z,7.8
2018-03-11T17:24:27.436Z,7.8
2018-03-11T17:25:49.888Z,7.7
2018-03-11T17:27:12.302Z,7.9
2018-03-11T17:28:32.153Z,7.6
2018-03-11T17:29:54.528Z,7.6
2018-03-11T17:31:14.456Z,7.6
2018-03-11T17:32:36.872Z,7.5
2018-03-11T17:33:56.718Z,7.5
2018-03-11T17:35:19.140Z,7.5
2018-03-11T17:36:41.546Z,7.3
2018-03-11T17:38:01.438Z,7.1
2018-03-11T17:39:23.879Z,7
2018-03-11T17:40:43.719Z,7
2018-03-11T17:42:06.082Z,7
2018-03-11T17:43:25.924Z,6.9
2018-03-11T17:44:45.762Z,7
2018-03-11T17:46:05.627Z,7
2018-03-11T17:47:25.491Z,6.9
2018-03-11T17:48:45.364Z,6.8
2018-03-11T17:50:05.220Z,6.7
2018-03-11T17:51:30.141Z,6.5
2018-03-11T17:52:55.118Z,6.4
2018-03-11T17:54:14.999Z,6.4
2018-03-11T17:55:34.928Z,6.4
2018-03-11T17:56:57.298Z,6.3
2018-03-11T17:58:17.176Z,6.1
2018-03-11T17:59:39.559Z,6
2018-03-11T18:00:59.450Z,5.9
2018-03-11T18:02:19.362Z,5.8
2018-03-11T18:03:46.842Z,5.8
2018-03-11T18:05:11.745Z,5.8
2018-03-11T18:06:31.583Z,5.9
2018-03-11T18:07:51.471Z,5.8
2018-03-11T18:09:11.299Z,5.8
2018-03-11T18:10:31.186Z,5.7
2018-03-11T18:11:51.013Z,5.8
2018-03-11T18:13:18.486Z,6
2018-03-11T18:14:45.929Z,6.3
2018-03-11T18:16:10.839Z,6.4
2018-03-11T18:17:30.706Z,6.5
2018-03-11T18:18:50.541Z,6.5
2018-03-11T18:20:10.498Z,6.6
2018-03-11T18:21:30.392Z,6.6
2018-03-11T18:22:50.292Z,6.7
2018-03-11T18:24:10.148Z,6.7
2018-03-11T18:25:32.571Z,6.7
2018-03-11T18:26:55.012Z,6.5
2018-03-11T18:28:22.454Z,6.6
2018-03-11T18:29:42.301Z,6.5
2018-03-11T18:31:04.758Z,6.3
2018-03-11T18:32:24.628Z,6.2
2018-03-11T18:33:49.559Z,6.4
2018-03-11T18:35:11.933Z,6.2
2018-03-11T18:36:31.826Z,6.4
2018-03-11T18:37:54.195Z,6.4
2018-03-11T18:39:16.640Z,6.3
2018-03-11T18:40:39.054Z,6.3
2018-03-11T18:42:01.444Z,6.1
2018-03-11T18:43:23.804Z,6.1
2018-03-11T18:44:43.664Z,5.7
2018-03-11T18:46:03.509Z,5.6